createdAt,value
2023-05-15T00:01:35.972Z,9.88
2023-05-15T00:04:02.255Z,9.87
2023-05-15T00:06:29.229Z,9.87
2023-05-15T00:08:55.544Z,9.89
2023-05-15T00:11:22.827Z,9.88
2023-05-15T00:13:49.245Z,9.89
2023-05-15T00:16:15.645Z,9.88
2023-05-15T00:18:42.115Z,9.89
2023-05-15T00:21:08.471Z,9.93
2023-05-15T00:23:35.412Z,9.98
2023-05-15T00:26:01.858Z,9.99
2023-05-15T00:28:28.196Z,9.93
2023-05-15T00:30:54.530Z,9.91
2023-05-15T00:33:20.850Z,9.93
2023-05-15T00:35:47.186Z,9.90
2023-05-15T00:38:13.495Z,9.88
2023-05-15T00:40:42.449Z,9.98
2023-05-15T00:43:10.667Z,10.00
2023-05-15T00:45:39.837Z,9.96
2023-05-15T00:48:08.948Z,9.91
2023-05-15T00:50:36.023Z,9.91
2023-05-15T00:53:03.140Z,9.89
2023-05-15T00:55:30.812Z,9.92
2023-05-15T00:57:58.793Z,9.87
2023-05-15T01:00:25.745Z,9.94
2023-05-15T01:02:52.705Z,9.92
2023-05-15T01:05:19.390Z,9.96
2023-05-15T01:07:52.149Z,9.99
2023-05-15T01:10:20.957Z,9.90
2023-05-15T01:12:50.135Z,9.82
2023-05-15T01:15:17.206Z,9.80
2023-05-15T01:17:43.565Z,9.72
2023-05-15T01:20:12.532Z,9.78
2023-05-15T01:22:51.398Z,9.80
2023-05-15T01:25:53.241Z,9.75
2023-05-15T01:28:27.272Z,9.81
2023-05-15T01:30:56.362Z,9.76
2023-05-15T01:33:27.801Z,9.82
2023-05-15T01:36:00.162Z,9.76
2023-05-15T01:38:33.258Z,9.82
2023-05-15T01:41:06.129Z,9.73
2023-05-15T01:43:38.375Z,9.69
2023-05-15T01:46:06.752Z,9.72
2023-05-15T01:48:35.331Z,9.67
2023-05-15T01:51:05.600Z,9.69
2023-05-15T01:53:33.581Z,9.68
2023-05-15T01:56:00.841Z,9.69
2023-05-15T01:58:28.253Z,9.68
2023-05-15T02:00:57.004Z,9.67
2023-05-15T02:03:24.532Z,9.75
2023-05-15T02:05:52.549Z,9.74
2023-05-15T02:08:20.311Z,9.83
2023-05-15T02:10:48.291Z,9.81
2023-05-15T02:13:16.173Z,9.76
2023-05-15T02:15:42.741Z,9.72
2023-05-15T02:18:09.830Z,9.66
2023-05-15T02:20:36.143Z,9.69
2023-05-15T02:23:02.416Z,9.64
2023-05-15T02:25:38.233Z,9.64
2023-05-15T02:28:08.127Z,9.59
2023-05-15T02:30:42.710Z,9.59
2023-05-15T02:33:19.244Z,9.49
2023-05-15T02:35:51.484Z,9.54
2023-05-15T02:38:20.220Z,9.42
2023-05-15T02:40:48.197Z,9.40
2023-05-15T02:43:17.380Z,9.35
2023-05-15T02:45:46.306Z,9.31
2023-05-15T02:48:14.302Z,9.35
2023-05-15T02:50:41.536Z,9.39
2023-05-15T02:53:09.127Z,9.47
2023-05-15T02:55:36.213Z,9.45
2023-05-15T02:58:03.519Z,9.51
2023-05-15T03:00:30.064Z,9.55
2023-05-15T03:02:56.414Z,9.52
2023-05-15T03:05:23.668Z,9.63
2023-05-15T03:07:50.239Z,9.64
2023-05-15T03:10:16.551Z,9.65
2023-05-15T03:12:43.173Z,9.69
2023-05-15T03:15:09.754Z,9.72
2023-05-15T03:17:36.057Z,9.72
2023-05-15T03:20:03.969Z,9.76
2023-05-15T03:22:30.925Z,9.70
2023-05-15T03:24:57.397Z,9.66
2023-05-15T03:27:23.686Z,9.62
2023-05-15T03:29:50.338Z,9.67
2023-05-15T03:32:16.801Z,9.65
2023-05-15T03:34:43.180Z,9.68
2023-05-15T03:37:09.490Z,9.64
2023-05-15T03:39:36.408Z,9.64
2023-05-15T03:42:02.850Z,9.62
2023-05-15T03:44:29.198Z,9.61
2023-05-15T03:46:55.507Z,9.60
2023-05-15T03:49:21.845Z,9.58
2023-05-15T03:51:48.208Z,9.58
2023-05-15T03:54:14.529Z,9.61
2023-05-15T03:56:41.607Z,9.57
2023-05-15T03:59:07.921Z,9.61
2023-05-15T04:01:40.945Z,9.70
2023-05-15T04:04:13.786Z,9.76
2023-05-15T04:06:40.108Z,9.73
2023-05-15T04:09:06.380Z,9.76
2023-05-15T04:11:33.975Z,9.80
2023-05-15T04:14:00.932Z,9.76
2023-05-15T04:16:27.279Z,9.79
2023-05-15T04:18:53.623Z,9.76
2023-05-15T04:21:19.948Z,9.76
2023-05-15T04:23:46.232Z,9.82
2023-05-15T04:26:12.581Z,9.86
2023-05-15T04:28:40.249Z,9.81
2023-05-15T04:31:10.066Z,9.81
2023-05-15T04:33:36.359Z,9.79
2023-05-15T04:36:02.817Z,9.84
2023-05-15T04:38:29.430Z,9.83
2023-05-15T04:40:55.737Z,9.88
2023-05-15T04:43:22.038Z,9.94
2023-05-15T04:45:48.423Z,9.98
2023-05-15T04:48:15.510Z,10.01
2023-05-15T04:50:41.809Z,10.04
2023-05-15T04:53:08.054Z,10.10
2023-05-15T04:55:34.341Z,10.12
2023-05-15T04:58:00.585Z,10.15
2023-05-15T05:00:28.003Z,10.15
2023-05-15T05:02:54.374Z,10.12
2023-05-15T05:05:21.450Z,10.13
2023-05-15T05:07:47.778Z,10.16
2023-05-15T05:10:14.191Z,10.26
2023-05-15T05:12:40.503Z,10.28
2023-05-15T05:15:08.246Z,10.28
2023-05-15T05:17:34.610Z,10.31
2023-05-15T05:20:00.985Z,10.39
2023-05-15T05:22:27.936Z,10.48
2023-05-15T05:24:54.203Z,10.33
2023-05-15T05:27:24.446Z,10.38
2023-05-15T05:29:52.672Z,10.41
2023-05-15T05:32:19.084Z,10.39
2023-05-15T05:34:45.387Z,10.46
2023-05-15T05:37:11.657Z,10.52
2023-05-15T05:39:38.586Z,10.52
2023-05-15T05:42:05.432Z,10.54
2023-05-15T05:44:31.702Z,10.63
2023-05-15T05:46:58.014Z,10.58
2023-05-15T05:49:24.421Z,10.49
2023-05-15T05:51:50.721Z,10.58
2023-05-15T05:54:17.544Z,10.53
2023-05-15T05:56:44.733Z,10.55
2023-05-15T05:59:11.126Z,10.58
2023-05-15T06:01:37.561Z,10.53
2023-05-15T06:04:04.400Z,10.60
2023-05-15T06:06:30.716Z,10.60
2023-05-15T06:08:57.033Z,10.78
2023-05-15T06:11:25.313Z,10.82
2023-05-15T06:13:52.802Z,10.89
2023-05-15T06:16:19.155Z,10.87
2023-05-15T06:18:45.481Z,10.86
2023-05-15T06:21:11.843Z,10.91
2023-05-15T06:23:38.497Z,10.90
2023-05-15T06:26:05.029Z,10.87
2023-05-15T06:28:31.331Z,10.92
2023-05-15T06:30:58.283Z,10.96
2023-05-15T06:33:24.649Z,10.90
2023-05-15T06:35:51.415Z,10.96
2023-05-15T06:38:17.722Z,11.12
2023-05-15T06:40:44.064Z,11.12
2023-05-15T06:43:10.381Z,11.14
2023-05-15T06:45:36.651Z,11.19
2023-05-15T06:48:04.078Z,11.24
2023-05-15T06:50:30.421Z,11.28
2023-05-15T06:52:56.756Z,11.36
2023-05-15T06:55:23.314Z,11.47
2023-05-15T06:57:49.804Z,11.60
2023-05-15T07:00:16.759Z,11.82
2023-05-15T07:02:43.301Z,11.85
2023-05-15T07:05:10.786Z,11.90
2023-05-15T07:07:37.173Z,11.78
2023-05-15T07:10:03.977Z,11.99
2023-05-15T07:12:32.045Z,12.09
2023-05-15T07:14:58.375Z,12.08
2023-05-15T07:17:24.893Z,11.98
2023-05-15T07:19:51.214Z,12.08
2023-05-15T07:22:18.120Z,12.21
2023-05-15T07:24:44.403Z,12.24
2023-05-15T07:27:10.715Z,12.64
2023-05-15T07:29:37.017Z,12.89
2023-05-15T07:32:03.833Z,13.16
2023-05-15T07:34:30.268Z,13.44
2023-05-15T07:36:56.566Z,13.65
2023-05-15T07:39:23.551Z,13.71
2023-05-15T07:41:49.894Z,13.44
2023-05-15T07:44:16.241Z,13.49
2023-05-15T07:46:42.726Z,13.72
2023-05-15T07:49:09.233Z,13.70
2023-05-15T07:51:35.520Z,13.89
2023-05-15T07:54:03.346Z,14.12
2023-05-15T07:56:30.347Z,14.11
2023-05-15T07:58:56.656Z,14.35
2023-05-15T08:01:23.018Z,13.51
2023-05-15T08:03:49.540Z,13.60
2023-05-15T08:06:15.933Z,13.69
2023-05-15T08:08:42.248Z,14.03
2023-05-15T08:11:08.531Z,14.13
2023-05-15T08:13:35.508Z,14.31
2023-05-15T08:16:03.081Z,14.59
2023-05-15T08:18:29.459Z,14.77
2023-05-15T08:20:55.776Z,14.96
2023-05-15T08:23:22.108Z,14.98
2023-05-15T08:25:48.402Z,15.19
2023-05-15T08:28:14.896Z,15.44
2023-05-15T08:30:41.862Z,15.29
2023-05-15T08:33:08.170Z,15.53
2023-05-15T08:35:37.312Z,15.57
2023-05-15T08:38:03.638Z,15.81
2023-05-15T08:40:39.117Z,16.39
2023-05-15T08:43:14.209Z,16.35
2023-05-15T08:45:43.549Z,16.12
2023-05-15T08:48:14.241Z,15.43
2023-05-15T08:50:47.778Z,15.19
2023-05-15T08:53:14.420Z,15.07
2023-05-15T08:55:41.255Z,14.38
2023-05-15T08:58:08.793Z,14.58
2023-05-15T09:00:35.421Z,14.52
2023-05-15T09:03:02.060Z,14.36
2023-05-15T09:05:29.747Z,14.24
2023-05-15T09:07:57.155Z,14.36
2023-05-15T09:10:24.765Z,14.41
2023-05-15T09:12:52.033Z,14.19
2023-05-15T09:15:21.647Z,14.43
2023-05-15T09:17:49.773Z,14.65
2023-05-15T09:20:27.153Z,14.71
2023-05-15T09:22:54.650Z,14.88
2023-05-15T09:25:36.799Z,14.89
2023-05-15T09:28:03.410Z,15.03
2023-05-15T09:30:30.443Z,15.00
2023-05-15T09:32:59.641Z,15.36
2023-05-15T09:35:32.854Z,15.61
2023-05-15T09:38:01.109Z,15.75
2023-05-15T09:40:31.255Z,15.75
2023-05-15T09:42:57.748Z,16.17
2023-05-15T09:45:26.241Z,16.28
2023-05-15T09:47:52.942Z,16.38
2023-05-15T09:50:21.721Z,16.44
2023-05-15T09:52:48.152Z,16.53
2023-05-15T09:55:16.471Z,17.09
2023-05-15T09:57:43.006Z,17.55
2023-05-15T10:00:11.367Z,17.74
2023-05-15T10:02:40.926Z,17.81
2023-05-15T10:05:08.115Z,17.55
2023-05-15T10:07:35.823Z,17.23
2023-05-15T10:10:04.121Z,17.12
2023-05-15T10:12:31.575Z,17.09
2023-05-15T10:14:59.388Z,18.03
2023-05-15T10:17:27.397Z,18.23
2023-05-15T10:19:59.078Z,18.29
2023-05-15T10:22:29.327Z,18.44
2023-05-15T10:25:02.352Z,18.62
2023-05-15T10:27:31.892Z,18.70
2023-05-15T10:30:00.359Z,18.30
2023-05-15T10:32:27.305Z,17.65
2023-05-15T10:34:54.102Z,17.16
2023-05-15T10:37:21.066Z,16.88
2023-05-15T10:39:47.474Z,16.82
2023-05-15T10:42:14.669Z,16.53
2023-05-15T10:44:41.718Z,16.24
2023-05-15T10:47:08.929Z,15.88
2023-05-15T10:49:35.432Z,15.58
2023-05-15T10:52:02.154Z,15.27
2023-05-15T10:54:29.264Z,15.25
2023-05-15T10:56:56.638Z,15.15
2023-05-15T10:59:31.629Z,15.30
2023-05-15T11:02:19.576Z,15.43
2023-05-15T11:04:46.118Z,15.51
2023-05-15T11:07:13.925Z,15.28
2023-05-15T11:09:40.815Z,15.08
2023-05-15T11:12:08.462Z,14.86
2023-05-15T11:14:39.566Z,14.63
2023-05-15T11:17:08.360Z,14.34
2023-05-15T11:19:40.340Z,14.05
2023-05-15T11:22:17.909Z,13.82
2023-05-15T11:24:50.082Z,14.05
2023-05-15T11:27:21.964Z,14.06
2023-05-15T11:30:11.939Z,14.48
2023-05-15T11:32:54.138Z,14.87
2023-05-15T11:35:23.059Z,14.63
2023-05-15T11:37:53.159Z,14.01
2023-05-15T11:40:21.582Z,13.92
2023-05-15T11:43:02.234Z,13.67
2023-05-15T11:45:30.507Z,13.08
2023-05-15T11:47:59.626Z,12.87
2023-05-15T11:50:27.013Z,12.66
2023-05-15T11:52:54.019Z,12.57
2023-05-15T11:55:21.228Z,12.45
2023-05-15T11:57:47.553Z,12.33
2023-05-15T12:00:14.587Z,12.16
2023-05-15T12:02:41.118Z,12.04
2023-05-15T12:05:09.016Z,12.04
2023-05-15T12:07:37.688Z,12.24
2023-05-15T12:10:09.302Z,12.19
2023-05-15T12:12:36.335Z,12.31
2023-05-15T12:15:04.906Z,12.24
2023-05-15T12:17:31.618Z,11.99
2023-05-15T12:19:59.855Z,11.73
2023-05-15T12:22:26.815Z,11.48
2023-05-15T12:24:53.198Z,11.39
2023-05-15T12:27:19.642Z,11.25
2023-05-15T12:29:48.884Z,11.19
2023-05-15T12:32:15.319Z,11.21
2023-05-15T12:34:41.878Z,11.14
2023-05-15T12:37:12.468Z,11.06
2023-05-15T12:39:50.910Z,10.88
2023-05-15T12:42:17.285Z,10.62
2023-05-15T12:44:44.180Z,10.60
2023-05-15T12:47:13.790Z,10.47
2023-05-15T12:49:41.285Z,10.39
2023-05-15T12:52:08.757Z,10.39
2023-05-15T12:54:39.606Z,10.43
2023-05-15T12:57:07.972Z,10.42
2023-05-15T12:59:34.473Z,10.46
2023-05-15T13:02:00.999Z,10.64
2023-05-15T13:04:27.473Z,10.88
2023-05-15T13:06:54.067Z,11.15
2023-05-15T13:09:21.898Z,11.34
2023-05-15T13:11:48.476Z,11.44
2023-05-15T13:14:17.922Z,11.63
2023-05-15T13:16:46.423Z,11.73
2023-05-15T13:19:13.498Z,11.97
2023-05-15T13:21:40.163Z,12.22
2023-05-15T13:24:09.192Z,12.39
2023-05-15T13:26:35.623Z,12.69
2023-05-15T13:29:02.148Z,12.96
2023-05-15T13:31:29.297Z,13.22
2023-05-15T13:33:55.774Z,13.44
2023-05-15T13:36:22.260Z,13.42
2023-05-15T13:38:48.580Z,13.47
2023-05-15T13:41:15.113Z,13.46
2023-05-15T13:43:41.484Z,13.18
2023-05-15T13:46:08.129Z,12.99
2023-05-15T13:48:35.333Z,12.96
2023-05-15T13:51:01.669Z,12.69
2023-05-15T13:53:28.003Z,12.57
2023-05-15T13:55:54.467Z,12.48
2023-05-15T13:58:20.899Z,12.42
2023-05-15T14:00:48.383Z,12.06
2023-05-15T14:03:15.397Z,11.93
2023-05-15T14:05:42.662Z,11.83
2023-05-15T14:08:09.112Z,11.58
2023-05-15T14:10:36.518Z,11.41
2023-05-15T14:13:02.958Z,11.03
2023-05-15T14:15:29.316Z,10.89
2023-05-15T14:17:55.710Z,10.84
2023-05-15T14:20:22.184Z,11.19
2023-05-15T14:22:49.211Z,11.68
2023-05-15T14:25:15.560Z,11.98
2023-05-15T14:27:41.982Z,12.12
2023-05-15T14:30:09.392Z,12.28
2023-05-15T14:32:37.707Z,12.29
2023-05-15T14:35:04.837Z,12.31
2023-05-15T14:37:31.320Z,12.36
2023-05-15T14:39:58.353Z,12.27
2023-05-15T14:42:29.090Z,12.08
2023-05-15T14:44:55.526Z,12.12
2023-05-15T14:47:22.060Z,12.00
2023-05-15T14:49:48.494Z,11.92
2023-05-15T14:52:14.929Z,11.81
2023-05-15T14:54:41.321Z,11.75
2023-05-15T14:57:08.378Z,11.74
2023-05-15T14:59:34.935Z,11.70
2023-05-15T15:02:01.545Z,11.64
2023-05-15T15:04:29.737Z,11.54
2023-05-15T15:06:56.334Z,11.38
2023-05-15T15:09:23.377Z,11.26
2023-05-15T15:11:49.705Z,11.23
2023-05-15T15:14:16.666Z,11.09
2023-05-15T15:16:45.269Z,10.96
2023-05-15T15:19:11.858Z,10.82
2023-05-15T15:21:38.186Z,10.79
2023-05-15T15:24:05.079Z,10.75
2023-05-15T15:26:31.381Z,10.73
2023-05-15T15:29:00.055Z,10.79
2023-05-15T15:31:27.850Z,10.76
2023-05-15T15:33:54.157Z,10.76
2023-05-15T15:36:20.428Z,10.80
2023-05-15T15:38:46.887Z,11.06
2023-05-15T15:41:13.548Z,11.13
2023-05-15T15:43:40.413Z,11.29
2023-05-15T15:46:06.795Z,11.54
2023-05-15T15:48:33.777Z,11.53
2023-05-15T15:51:00.131Z,11.60
2023-05-15T15:53:26.581Z,11.46
2023-05-15T15:55:53.027Z,11.52
2023-05-15T15:58:19.335Z,11.61
2023-05-15T16:00:45.787Z,11.44
2023-05-15T16:03:12.255Z,11.48
2023-05-15T16:05:39.271Z,11.63
2023-05-15T16:08:05.592Z,11.73
2023-05-15T16:10:32.134Z,11.88
2023-05-15T16:12:58.650Z,12.14
2023-05-15T16:15:25.031Z,12.26
2023-05-15T16:17:52.887Z,12.10
2023-05-15T16:20:19.969Z,12.04
2023-05-15T16:22:47.027Z,12.01
2023-05-15T16:25:13.366Z,11.90
2023-05-15T16:27:39.696Z,11.77
2023-05-15T16:30:07.094Z,11.71
2023-05-15T16:32:33.448Z,11.68
2023-05-15T16:34:59.822Z,11.66
2023-05-15T16:37:26.120Z,11.75
2023-05-15T16:39:53.070Z,11.71
2023-05-15T16:42:19.867Z,11.93
2023-05-15T16:44:46.275Z,12.01
2023-05-15T16:47:12.587Z,12.22
2023-05-15T16:49:39.005Z,12.39
2023-05-15T16:52:05.448Z,12.39
2023-05-15T16:54:31.797Z,12.31
2023-05-15T16:56:58.748Z,12.28
2023-05-15T16:59:25.076Z,12.15
2023-05-15T17:01:52.005Z,12.19
2023-05-15T17:04:18.377Z,12.06
2023-05-15T17:06:44.664Z,12.08
2023-05-15T17:09:10.952Z,12.24
2023-05-15T17:11:37.265Z,12.22
2023-05-15T17:14:04.226Z,12.08
2023-05-15T17:16:30.610Z,11.97
2023-05-15T17:18:56.987Z,11.95
2023-05-15T17:21:23.351Z,11.90
2023-05-15T17:23:52.562Z,11.80
2023-05-15T17:26:18.908Z,11.86
2023-05-15T17:28:45.238Z,11.82
2023-05-15T17:31:12.249Z,11.75
2023-05-15T17:33:38.610Z,11.61
2023-05-15T17:36:05.179Z,11.54
2023-05-15T17:38:31.520Z,11.51
2023-05-15T17:40:57.813Z,11.48
2023-05-15T17:43:24.171Z,11.51
2023-05-15T17:45:50.457Z,11.47
2023-05-15T17:48:17.463Z,11.48
2023-05-15T17:50:44.314Z,11.54
2023-05-15T17:53:10.654Z,11.58
2023-05-15T17:55:36.939Z,11.67
2023-05-15T17:58:03.312Z,11.83
2023-05-15T18:00:29.670Z,11.96
2023-05-15T18:02:56.043Z,11.88
2023-05-15T18:05:23.400Z,11.77
2023-05-15T18:07:49.844Z,11.77
2023-05-15T18:10:16.146Z,11.64
2023-05-15T18:12:42.589Z,11.51
2023-05-15T18:15:09.500Z,11.41
2023-05-15T18:17:35.850Z,11.31
2023-05-15T18:20:04.762Z,11.08
2023-05-15T18:22:31.814Z,10.91
2023-05-15T18:24:58.322Z,10.94
2023-05-15T18:27:24.953Z,10.90
2023-05-15T18:29:51.268Z,10.83
2023-05-15T18:32:18.585Z,10.72
2023-05-15T18:34:46.147Z,10.67
2023-05-15T18:37:12.894Z,10.66
2023-05-15T18:39:42.183Z,10.65
2023-05-15T18:42:08.665Z,10.62
2023-05-15T18:44:35.148Z,10.61
2023-05-15T18:47:01.827Z,10.53
2023-05-15T18:49:28.532Z,10.48
2023-05-15T18:51:54.894Z,10.43
2023-05-15T18:54:21.174Z,10.37
2023-05-15T18:56:48.251Z,10.25
2023-05-15T18:59:14.656Z,10.16
2023-05-15T19:01:41.022Z,10.10
2023-05-15T19:04:08.150Z,10.02
2023-05-15T19:06:34.525Z,10.04
2023-05-15T19:09:00.867Z,9.98
2023-05-15T19:11:27.153Z,9.89
2023-05-15T19:13:54.179Z,9.93
2023-05-15T19:16:20.493Z,9.83
2023-05-15T19:18:46.889Z,9.80
2023-05-15T19:21:14.962Z,9.71
2023-05-15T19:23:41.306Z,9.71
2023-05-15T19:26:09.542Z,9.65
2023-05-15T19:28:35.835Z,9.61
2023-05-15T19:31:03.858Z,9.56
2023-05-15T19:33:30.259Z,9.50
2023-05-15T19:35:56.645Z,9.44
2023-05-15T19:38:22.964Z,9.42
2023-05-15T19:40:49.288Z,9.30
2023-05-15T19:43:15.580Z,9.33
2023-05-15T19:45:42.628Z,9.25
2023-05-15T19:48:09.716Z,9.13
2023-05-15T19:50:38.622Z,9.03
2023-05-15T19:53:05.052Z,8.99
2023-05-15T19:55:31.371Z,8.94
2023-05-15T19:57:57.664Z,8.88
2023-05-15T20:00:24.437Z,8.89
2023-05-15T20:02:51.912Z,8.93
2023-05-15T20:05:19.205Z,8.93
2023-05-15T20:07:45.541Z,8.95
2023-05-15T20:10:11.890Z,9.03
2023-05-15T20:12:38.184Z,9.02
2023-05-15T20:15:06.097Z,9.00
2023-05-15T20:17:32.970Z,8.89
2023-05-15T20:19:59.400Z,8.99
2023-05-15T20:22:26.434Z,8.95
2023-05-15T20:24:52.783Z,9.01
2023-05-15T20:27:19.057Z,9.03
2023-05-15T20:29:45.416Z,9.05
2023-05-15T20:32:12.841Z,9.05
2023-05-15T20:34:42.573Z,9.10
2023-05-15T20:37:09.159Z,9.11
2023-05-15T20:39:36.272Z,9.11
2023-05-15T20:42:02.609Z,9.11
2023-05-15T20:44:29.196Z,9.12
2023-05-15T20:46:55.636Z,9.13
2023-05-15T20:49:21.955Z,9.06
2023-05-15T20:51:48.865Z,9.14
2023-05-15T20:54:15.457Z,9.13
2023-05-15T20:56:42.553Z,9.17
2023-05-15T20:59:08.940Z,9.20
2023-05-15T21:01:35.675Z,9.24
2023-05-15T21:04:02.246Z,9.26
2023-05-15T21:06:28.672Z,9.24
2023-05-15T21:08:55.184Z,9.23
2023-05-15T21:11:21.500Z,9.27
2023-05-15T21:13:48.547Z,9.29
2023-05-15T21:16:14.972Z,9.32
2023-05-15T21:18:41.366Z,9.34
2023-05-15T21:21:07.706Z,9.36
2023-05-15T21:23:35.777Z,9.33
2023-05-15T21:26:02.543Z,9.37
2023-05-15T21:28:28.899Z,9.39
2023-05-15T21:30:56.380Z,9.36
2023-05-15T21:33:22.717Z,9.44
2023-05-15T21:35:49.103Z,9.42
2023-05-15T21:38:15.527Z,9.49
2023-05-15T21:40:41.837Z,9.45
2023-05-15T21:43:09.047Z,9.45
2023-05-15T21:45:35.384Z,9.42
2023-05-15T21:48:02.364Z,9.48
2023-05-15T21:50:28.942Z,9.48
2023-05-15T21:52:55.252Z,9.49
2023-05-15T21:55:21.524Z,9.47
2023-05-15T21:57:47.801Z,9.44
2023-05-15T22:00:15.460Z,9.45
2023-05-15T22:02:41.936Z,9.49
2023-05-15T22:05:09.318Z,9.37
2023-05-15T22:07:35.590Z,9.45
2023-05-15T22:10:02.664Z,9.45
2023-05-15T22:12:29.353Z,9.43
2023-05-15T22:14:59.136Z,9.46
2023-05-15T22:17:28.183Z,9.47
2023-05-15T22:20:01.838Z,9.47
2023-05-15T22:22:28.802Z,9.46
2023-05-15T22:24:55.183Z,9.52
2023-05-15T22:27:21.461Z,9.47
2023-05-15T22:29:47.738Z,9.50
2023-05-15T22:32:14.099Z,9.49
2023-05-15T22:34:40.377Z,9.51
2023-05-15T22:37:06.722Z,9.46
2023-05-15T22:39:33.718Z,9.52
2023-05-15T22:42:00.033Z,9.49
2023-05-15T22:44:26.828Z,9.45
2023-05-15T22:46:53.387Z,9.41
2023-05-15T22:49:22.899Z,9.48
2023-05-15T22:58:03.540Z,9.35
2023-05-15T23:00:30.075Z,9.37
2023-05-15T23:02:56.837Z,9.36
2023-05-15T23:05:24.213Z,9.38
2023-05-15T23:07:50.745Z,9.39
2023-05-15T23:10:17.125Z,9.34
2023-05-15T23:12:43.540Z,9.37
2023-05-15T23:15:11.066Z,9.42
2023-05-15T23:17:37.593Z,9.37
2023-05-15T23:20:05.988Z,9.38
2023-05-15T23:22:32.492Z,9.39
2023-05-15T23:24:58.792Z,9.35
2023-05-15T23:27:25.201Z,9.31
2023-05-15T23:29:51.661Z,9.36
2023-05-15T23:32:18.664Z,9.33
2023-05-15T23:34:45.072Z,9.36
2023-05-15T23:37:11.392Z,9.40
2023-05-15T23:39:37.673Z,9.45
2023-05-15T23:42:04.615Z,9.36
2023-05-15T23:44:31.032Z,9.24
2023-05-15T23:46:57.351Z,9.22
2023-05-15T23:49:24.410Z,9.22
2023-05-15T23:51:50.669Z,9.23
2023-05-15T23:54:17.425Z,9.26
2023-05-15T23:56:43.729Z,9.23
2023-05-15T23:59:10.028Z,9.32
